Fort Bliss, Texas
Current Conditions -  °F | °C
As of 5:58 AM on Thursday 30 Oct 2014 (Local Time) from KBIF Reporting Station
Clear Clear  
Wind Chill:   Ceiling: Unl
Heat Index:   Visibility: 10mi
Dew Point:   Wind: 9mph
Humidity: 76%   Direction: 360°N
Pressure: 30.18"   Gusts: NA
Location:  31.8335°N, 106.423°W
Report Text: KBIF 301158Z 36008KT 10SM CLR 10/06 A3018 RMK AO2A SLP176 T00950055 10145 20083 53004
Loading
Personal Weather Stations






























Interactive Weather Map
Tropical Storm Tracking
New forecast layout! Learn more

10-Day Weather Forecast

Advertisements
Track Severe Weather on mobile